Time;durP1;ratioP1;P1;durP2;ratioP2;P2;SDS_P1;SDS_P2;PMS_P1;PMS_P2;Temp;Humidity;BMP_temperature;BMP_pressure;BME280_temperature;BME280_humidity;BME280_pressure;Samples;Min_cycle;Max_cycle;Signal;HPM_P1;HPM_P2
2022/01/20 00:00:32;;;;;;;;;64.00;49.00;;;;;5.60;44.85;98524.06;6237053;28;97084;-70
2022/01/20 00:03:37;;;;;;;;;49.00;39.40;;;;;5.70;45.12;98526.38;6236868;28;97513;-70
2022/01/20 00:25:55;;;;;;;;;16.00;15.40;;;;;6.36;46.11;98513.22;6212150;28;97381;-68
2022/01/20 00:27:09;;;;;;;;;15.80;14.00;;;;;6.77;45.54;98526.44;6193503;28;96610;-71
2022/01/20 00:33:40;;;;;;;;;14.00;13.00;;;;;6.85;45.76;98507.47;6211738;28;97158;-71
2022/01/20 00:40:02;;;;;;;;;16.80;14.80;;;;;7.17;45.51;98503.09;6205212;28;97158;-71
2022/01/20 00:43:07;;;;;;;;;16.00;14.80;;;;;7.15;45.41;98529.28;6218856;28;100070;-69
2022/01/20 00:46:10;;;;;;;;;14.00;12.75;;;;;7.27;45.09;98514.22;6234726;28;96682;-70
2022/01/20 00:49:14;;;;;;;;;16.00;14.75;;;;;7.12;45.47;98532.41;6236817;28;96463;-70
2022/01/20 00:52:17;;;;;;;;;14.00;13.00;;;;;7.30;45.12;98535.25;6236646;28;97489;-70
2022/01/20 00:55:22;;;;;;;;;13.25;11.25;;;;;7.40;44.81;98530.28;6236817;28;96263;-71
2022/01/20 00:58:25;;;;;;;;;12.40;11.00;;;;;7.21;45.57;98531.13;6236615;28;96509;-68
2022/01/20 01:01:29;;;;;;;;;12.20;12.00;;;;;7.34;45.08;98515.84;6235243;28;98179;-68
2022/01/20 01:04:32;;;;;;;;;12.00;11.00;;;;;7.40;45.10;98512.31;6234847;28;97632;-71
2022/01/20 01:07:47;;;;;;;;;9.75;9.25;;;;;7.52;44.71;98507.16;6209705;27;99714;-68
2022/01/20 01:10:53;;;;;;;;;11.00;10.40;;;;;7.51;45.34;98481.34;6208434;28;96769;-68
2022/01/20 01:13:57;;;;;;;;;13.00;11.00;;;;;7.32;45.51;98499.16;6214868;28;97122;-71
2022/01/20 01:20:24;;;;;;;;;9.80;9.80;;;;;7.48;45.45;98478.28;6235623;28;97496;-70
2022/01/20 01:23:31;;;;;;;;;13.40;11.40;;;;;7.36;45.84;98462.84;6236639;28;96981;-68
2022/01/20 01:26:36;;;;;;;;;11.60;10.00;;;;;7.45;45.94;98441.13;6235573;28;97466;-67
2022/01/20 01:29:58;;;;;;;;;13.00;12.00;;;;;7.71;45.54;98441.84;6218058;28;99645;-68
2022/01/20 01:33:04;;;;;;;;;10.60;10.60;;;;;7.72;45.21;98456.91;6234540;27;96900;-68
2022/01/20 01:36:12;;;;;;;;;12.40;11.00;;;;;7.55;45.79;98455.75;6245486;27;97523;-70
2022/01/20 01:39:16;;;;;;;;;11.50;11.00;;;;;7.62;45.75;98459.25;6234557;28;96725;-70
2022/01/20 01:42:27;;;;;;;;;13.00;12.00;;;;;7.79;45.44;98430.03;6239068;28;96490;-69
2022/01/20 01:45:33;;;;;;;;;10.50;9.50;;;;;7.67;45.58;98429.88;6221955;28;99086;-72
2022/01/20 01:48:37;;;;;;;;;13.00;12.00;;;;;7.71;45.59;98425.75;6255821;27;97499;-69
2022/01/20 01:51:40;;;;;;;;;12.00;11.00;;;;;7.69;45.89;98403.69;6240370;28;97382;-69
2022/01/20 01:54:43;;;;;;;;;10.00;10.00;;;;;7.76;45.91;98415.22;6237968;27;97706;-69
2022/01/20 01:57:49;;;;;;;;;10.40;9.60;;;;;7.75;46.00;98407.34;6247520;27;97542;-68
2022/01/20 02:00:56;;;;;;;;;11.40;11.00;;;;;7.83;45.94;98401.72;6214588;28;97466;-69
2022/01/20 02:04:09;;;;;;;;;10.00;9.60;;;;;7.72;45.84;98384.44;6213919;28;97441;-72
2022/01/20 02:17:56;;;;;;;;;13.20;11.00;;;;;7.99;45.57;98369.00;6168417;27;97219;-69
2022/01/20 02:21:01;;;;;;;;;15.00;13.67;;;;;7.87;45.56;98362.69;6266300;27;96871;-69
2022/01/20 02:24:05;;;;;;;;;13.00;12.00;;;;;7.90;45.48;98367.63;6247969;27;98367;-68
2022/01/20 02:27:08;;;;;;;;;11.20;10.20;;;;;8.00;45.33;98359.94;6214545;28;96643;-68
2022/01/20 02:30:17;;;;;;;;;10.00;10.00;;;;;8.07;44.98;98352.63;6228200;28;97755;-70
2022/01/20 02:33:23;;;;;;;;;12.00;10.40;;;;;8.07;44.91;98339.19;6232368;28;97504;-69
2022/01/20 02:36:28;;;;;;;;;12.00;11.40;;;;;8.10;45.05;98337.97;6219572;28;97594;-67
2022/01/20 02:40:04;;;;;;;;;10.40;9.40;;;;;8.04;45.05;98347.72;6248357;27;96639;-71
2022/01/20 02:46:28;;;;;;;;;12.00;10.00;;;;;7.95;45.09;98340.97;6229349;28;96656;-71
2022/01/20 02:49:32;;;;;;;;;8.60;8.40;;;;;7.81;44.88;98334.06;6207584;28;96494;-70
2022/01/20 02:52:36;;;;;;;;;6.40;6.00;;;;;7.72;45.11;98335.38;6232285;27;98520;-70
2022/01/20 02:55:40;;;;;;;;;9.00;7.40;;;;;7.96;44.22;98307.72;6256065;27;97070;-70
2022/01/20 02:58:43;;;;;;;;;6.60;6.00;;;;;8.06;43.90;98329.50;6256197;27;98006;-69
2022/01/20 03:01:46;;;;;;;;;6.75;6.75;;;;;8.24;43.51;98323.38;6255449;27;96937;-70
2022/01/20 03:04:51;;;;;;;;;8.40;8.40;;;;;8.18;43.11;98324.25;6248036;27;96658;-71
2022/01/20 03:08:05;;;;;;;;;8.75;7.75;;;;;8.34;43.04;98322.91;6218981;28;96366;-70
2022/01/20 03:11:08;;;;;;;;;8.00;7.00;;;;;8.44;42.65;98304.41;6243429;27;96449;-72
2022/01/20 03:14:14;;;;;;;;;5.40;5.00;;;;;8.59;42.44;98305.72;6259717;27;97379;-71
2022/01/20 03:17:17;;;;;;;;;6.00;5.40;;;;;8.63;42.55;98300.69;6231036;28;96966;-70
2022/01/20 03:20:21;;;;;;;;;7.00;6.00;;;;;8.71;42.08;98311.16;6240465;27;97917;-68
2022/01/20 03:23:26;;;;;;;;;5.80;5.80;;;;;8.74;41.98;98304.50;6215627;28;97013;-71
2022/01/20 03:26:29;;;;;;;;;8.40;7.40;;;;;8.76;42.14;98300.53;6213632;28;97122;-69
2022/01/20 03:29:32;;;;;;;;;7.60;7.00;;;;;8.65;42.49;98299.41;6213497;28;98426;-68
2022/01/20 03:32:36;;;;;;;;;5.00;5.00;;;;;8.60;43.67;98304.63;6213987;28;97072;-69
2022/01/20 03:35:41;;;;;;;;;8.60;7.00;;;;;8.38;44.50;98316.88;6187981;28;97155;-70
2022/01/20 03:39:05;;;;;;;;;8.00;7.00;;;;;8.45;44.50;98301.53;6191360;28;96707;-70
2022/01/20 03:42:11;;;;;;;;;6.00;6.00;;;;;8.31;45.15;98291.13;6208990;28;97684;-70
2022/01/20 03:45:14;;;;;;;;;8.00;7.40;;;;;8.31;45.61;98286.56;6204927;28;97377;-71
2022/01/20 03:48:18;;;;;;;;;9.00;8.00;;;;;8.47;45.23;98279.78;6221869;28;97447;-69
2022/01/20 03:51:24;;;;;;;;;9.40;8.40;;;;;8.30;45.29;98250.03;6211576;28;98109;-72
2022/01/20 03:54:32;;;;;;;;;5.00;5.00;;;;;8.47;45.37;98274.41;6196361;28;96949;-72
2022/01/20 03:57:55;;;;;;;;;9.25;7.75;;;;;8.55;45.09;98282.19;6215108;28;96451;-71
2022/01/20 04:01:06;;;;;;;;;8.00;7.00;;;;;8.11;45.61;98242.97;6213656;28;97371;-70
2022/01/20 04:04:30;;;;;;;;;8.60;8.60;;;;;8.38;45.30;98263.16;6211212;28;97777;-72
2022/01/20 04:07:46;;;;;;;;;7.40;6.80;;;;;8.27;45.69;98269.22;6187097;28;98548;-72
2022/01/20 04:10:50;;;;;;;;;9.00;8.00;;;;;8.22;45.15;98244.88;6189424;28;96742;-69
2022/01/20 04:13:55;;;;;;;;;10.00;9.00;;;;;8.24;45.58;98254.38;6187452;28;96677;-71
2022/01/20 04:17:06;;;;;;;;;10.20;8.20;;;;;8.27;45.52;98251.25;6210338;28;98557;-73
2022/01/20 04:20:11;;;;;;;;;8.00;8.00;;;;;8.19;45.84;98248.03;6214948;28;97169;-69
2022/01/20 04:23:14;;;;;;;;;8.00;7.00;;;;;8.21;45.58;98248.63;6229422;28;96948;-71
2022/01/20 04:26:19;;;;;;;;;5.60;5.60;;;;;8.26;45.35;98249.59;6213066;28;96777;-69
2022/01/20 04:29:23;;;;;;;;;7.80;7.00;;;;;8.21;45.65;98237.88;6195474;28;97161;-69
2022/01/20 04:32:26;;;;;;;;;8.00;8.00;;;;;8.21;45.54;98240.56;6212875;28;97166;-70
2022/01/20 04:35:29;;;;;;;;;6.00;6.00;;;;;8.07;46.11;98239.06;6213664;28;96594;-70
2022/01/20 04:38:33;;;;;;;;;7.00;6.00;;;;;8.26;45.60;98241.53;6237651;27;97354;-71
2022/01/20 04:41:38;;;;;;;;;8.80;7.20;;;;;8.12;45.78;98256.16;6204871;28;97572;-68
2022/01/20 04:44:50;;;;;;;;;7.50;6.00;;;;;8.23;45.64;98228.56;6204958;28;97077;-69
2022/01/20 04:48:03;;;;;;;;;9.00;7.60;;;;;8.31;45.60;98227.47;6194288;28;97640;-68
2022/01/20 04:57:48;;;;;;;;;7.50;7.00;;;;;8.38;45.79;98213.97;6181542;28;97516;-69
2022/01/20 05:00:51;;;;;;;;;8.60;7.00;;;;;8.55;45.54;98218.50;6192040;28;98082;-69
2022/01/20 05:04:13;;;;;;;;;6.20;6.00;;;;;8.28;46.21;98219.84;6206096;28;97388;-68
2022/01/20 05:07:55;;;;;;;;;7.00;7.00;;;;;8.48;45.84;98208.91;6160744;28;96509;-71
2022/01/20 05:11:02;;;;;;;;;7.00;6.00;;;;;8.45;46.05;98207.50;6144949;28;97428;-71
2022/01/20 05:14:10;;;;;;;;;5.80;5.00;;;;;8.53;45.76;98195.63;6212304;28;97377;-70
2022/01/20 05:17:15;;;;;;;;;6.00;6.00;;;;;8.49;46.20;98197.13;6210825;28;97553;-68
2022/01/20 05:20:21;;;;;;;;;5.60;5.00;;;;;8.47;46.36;98191.97;6245538;27;96532;-69
2022/01/20 05:23:25;;;;;;;;;5.80;5.20;;;;;8.47;46.24;98199.19;6194866;28;97675;-71
2022/01/20 05:26:29;;;;;;;;;6.00;5.00;;;;;8.60;45.89;98185.63;6211194;28;97295;-68
2022/01/20 05:29:33;;;;;;;;;5.50;5.00;;;;;8.45;46.18;98194.06;6194938;28;99531;-71
2022/01/20 05:32:37;;;;;;;;;5.60;5.00;;;;;8.57;45.91;98192.25;6219429;28;98915;-71
2022/01/20 05:35:41;;;;;;;;;5.00;5.00;;;;;8.61;45.82;98190.75;6211781;28;96590;-68
2022/01/20 05:38:46;;;;;;;;;6.00;5.40;;;;;8.82;44.93;98192.16;6211759;28;96468;-68
2022/01/20 05:41:49;;;;;;;;;8.00;8.00;;;;;8.83;45.14;98191.09;6194006;28;98325;-69
2022/01/20 05:45:17;;;;;;;;;7.00;7.00;;;;;8.74;45.45;98179.03;6210900;28;96988;-71
2022/01/20 05:48:31;;;;;;;;;7.40;7.40;;;;;8.81;45.91;98184.31;6194869;28;96613;-69
2022/01/20 05:51:58;;;;;;;;;8.00;7.00;;;;;8.76;45.97;98182.28;6204394;28;97544;-73
2022/01/20 05:55:01;;;;;;;;;6.80;6.40;;;;;8.88;45.92;98179.66;6194074;28;97995;-71
2022/01/20 05:58:06;;;;;;;;;7.00;6.00;;;;;8.87;46.10;98176.16;6210032;28;96585;-70
2022/01/20 06:01:11;;;;;;;;;7.00;6.00;;;;;8.91;45.88;98185.41;6189291;28;97343;-69
2022/01/20 06:04:15;;;;;;;;;6.40;6.00;;;;;8.82;46.39;98169.81;6196904;28;97460;-68
2022/01/20 06:07:20;;;;;;;;;6.00;5.00;;;;;8.92;46.03;98178.16;6211092;28;96629;-69
2022/01/20 06:10:25;;;;;;;;;6.60;5.60;;;;;8.80;46.27;98170.03;6210347;28;97372;-68
2022/01/20 06:13:36;;;;;;;;;6.00;6.00;;;;;8.79;46.42;98181.03;6203272;28;97759;-68
2022/01/20 06:16:43;;;;;;;;;8.00;6.20;;;;;8.86;46.15;98185.25;6185695;28;97996;-72
2022/01/20 06:19:47;;;;;;;;;8.00;5.75;;;;;8.86;46.06;98179.06;6211062;28;96597;-69
2022/01/20 06:22:50;;;;;;;;;7.00;6.00;;;;;8.89;46.06;98179.44;6194025;28;98226;-72
2022/01/20 06:25:54;;;;;;;;;6.60;6.60;;;;;8.76;46.23;98168.03;6204868;28;97040;-68
2022/01/20 06:28:58;;;;;;;;;7.00;7.00;;;;;8.87;46.46;98176.16;6205061;28;97081;-71
2022/01/20 06:32:05;;;;;;;;;7.60;7.40;;;;;8.90;45.97;98175.69;6208061;28;98848;-71
2022/01/20 06:35:10;;;;;;;;;7.00;7.00;;;;;8.77;45.91;98173.19;6185025;28;97315;-72
2022/01/20 06:38:14;;;;;;;;;5.50;5.25;;;;;8.76;46.14;98160.78;6199980;28;96883;-70
2022/01/20 06:41:18;;;;;;;;;8.00;7.00;;;;;8.75;46.04;98152.97;6183896;28;97786;-72
2022/01/20 06:44:22;;;;;;;;;6.00;6.00;;;;;8.85;45.78;98154.06;6184707;28;97179;-70
2022/01/20 06:47:26;;;;;;;;;6.00;6.00;;;;;8.94;45.81;98147.31;6201984;28;96653;-71
2022/01/20 06:50:30;;;;;;;;;7.00;6.67;;;;;8.85;45.75;98119.09;6199884;28;97305;-71
2022/01/20 06:53:33;;;;;;;;;9.00;8.00;;;;;8.94;45.55;98139.22;6188004;28;97964;-69
2022/01/20 06:56:37;;;;;;;;;9.40;8.40;;;;;8.74;45.48;98127.16;6207261;28;96645;-69
2022/01/20 06:59:45;;;;;;;;;7.25;5.50;;;;;8.89;45.20;98136.44;6192061;28;98328;-70
2022/01/20 07:02:53;;;;;;;;;6.00;6.00;;;;;9.14;44.45;98141.63;6186603;28;96618;-72
2022/01/20 07:05:56;;;;;;;;;6.80;5.80;;;;;9.19;44.30;98132.91;6195426;28;96945;-69
2022/01/20 07:09:03;;;;;;;;;8.00;7.00;;;;;9.24;43.95;98133.00;6213644;28;97371;-71
2022/01/20 07:12:08;;;;;;;;;5.00;4.00;;;;;9.24;44.13;98141.88;6196828;28;98391;-70
2022/01/20 07:15:12;;;;;;;;;5.00;5.00;;;;;9.25;43.96;98138.16;6203477;28;97503;-69
2022/01/20 07:18:17;;;;;;;;;6.00;5.00;;;;;9.26;44.04;98138.97;6180339;28;96906;-69
2022/01/20 07:21:20;;;;;;;;;8.00;7.00;;;;;9.17;44.13;98127.75;6196637;28;97607;-71
2022/01/20 07:24:30;;;;;;;;;6.00;5.00;;;;;9.18;44.19;98121.31;6192775;28;97163;-72
2022/01/20 07:27:44;;;;;;;;;8.00;7.40;;;;;9.22;44.32;98130.56;6209073;28;97482;-69
2022/01/20 07:31:04;;;;;;;;;6.00;6.00;;;;;9.09;44.46;98107.38;6201910;28;97627;-69
2022/01/20 07:34:09;;;;;;;;;8.00;7.00;;;;;9.24;44.46;98106.09;6188829;28;96476;-71
2022/01/20 07:37:12;;;;;;;;;6.00;5.00;;;;;9.09;44.58;98125.38;6195785;28;97956;-71
2022/01/20 07:40:15;;;;;;;;;6.00;6.00;;;;;9.09;44.75;98119.97;6189666;28;97561;-71
2022/01/20 07:43:19;;;;;;;;;6.00;5.75;;;;;9.08;44.77;98132.63;6191852;28;98770;-68
2022/01/20 07:46:34;;;;;;;;;7.40;6.20;;;;;9.09;44.92;98130.75;6195964;28;98308;-68
2022/01/20 07:49:41;;;;;;;;;6.20;6.20;;;;;9.07;44.89;98141.75;6198571;28;97732;-67
2022/01/20 07:52:47;;;;;;;;;7.00;6.00;;;;;9.09;44.98;98136.94;6213519;28;96554;-68
2022/01/20 07:55:52;;;;;;;;;8.00;7.00;;;;;9.10;45.05;98138.59;6188789;28;97097;-69
2022/01/20 07:58:56;;;;;;;;;7.00;7.00;;;;;9.20;44.86;98131.81;6188156;28;96590;-71
2022/01/20 08:01:59;;;;;;;;;6.00;5.60;;;;;9.30;44.57;98143.66;6189895;28;98414;-68
2022/01/20 08:05:05;;;;;;;;;6.80;6.80;;;;;9.26;44.75;98147.03;6211750;28;97340;-70
2022/01/20 08:08:08;;;;;;;;;8.60;7.20;;;;;9.35;44.70;98151.03;6198492;28;98272;-70
2022/01/20 08:11:12;;;;;;;;;7.00;7.00;;;;;9.18;45.22;98150.91;6211985;28;97704;-69
2022/01/20 08:14:16;;;;;;;;;8.00;7.00;;;;;9.23;46.16;98172.53;6203557;28;97902;-68
2022/01/20 08:17:20;;;;;;;;;6.80;6.80;;;;;9.23;46.27;98175.22;6189258;28;98774;-68
2022/01/20 08:20:27;;;;;;;;;9.00;8.40;;;;;9.23;46.87;98201.31;6174686;28;96903;-70
2022/01/20 08:23:36;;;;;;;;;8.50;7.00;;;;;9.24;47.58;98219.06;6214006;28;96691;-68
2022/01/20 08:26:39;;;;;;;;;8.60;7.60;;;;;9.17;48.55;98229.09;6210432;28;99992;-72
2022/01/20 08:29:43;;;;;;;;;9.00;9.00;;;;;9.02;49.32;98230.34;6206244;28;97472;-70
2022/01/20 08:32:49;;;;;;;;;9.00;8.00;;;;;8.74;49.96;98205.09;6203363;28;98101;-69
2022/01/20 08:36:01;;;;;;;;;10.00;10.00;;;;;8.66;50.40;98201.66;6187113;28;96896;-71
2022/01/20 08:42:51;;;;;;;;;6.00;5.00;;;;;8.48;50.86;98179.38;6138149;28;97055;-70
2022/01/20 08:45:55;;;;;;;;;6.60;5.60;;;;;8.79;50.07;98181.03;6194776;28;99469;-69
2022/01/20 08:49:02;;;;;;;;;4.80;4.00;;;;;8.58;50.41;98175.09;6246087;27;97877;-72
2022/01/20 08:52:18;;;;;;;;;4.50;4.00;;;;;8.60;50.12;98170.31;6173892;28;96657;-68
2022/01/20 08:55:27;;;;;;;;;5.00;5.00;;;;;8.36;50.19;98141.69;6212259;28;96664;-71
2022/01/20 08:58:36;;;;;;;;;4.00;4.00;;;;;8.66;49.69;98172.09;6213556;28;96454;-71
2022/01/20 09:01:42;;;;;;;;;6.00;5.00;;;;;8.68;49.72;98179.94;6195392;28;96388;-68
2022/01/20 09:04:46;;;;;;;;;6.00;5.00;;;;;8.72;49.50;98177.59;6211051;28;97291;-71
2022/01/20 09:08:13;;;;;;;;;5.00;5.00;;;;;8.66;49.70;98176.63;6207267;28;97411;-67
2022/01/20 09:11:30;;;;;;;;;9.00;8.00;;;;;8.56;49.61;98174.50;6186101;28;96987;-70
2022/01/20 09:17:55;;;;;;;;;9.00;8.00;;;;;8.81;49.57;98174.38;6226552;28;97126;-69
2022/01/20 09:20:58;;;;;;;;;8.60;8.40;;;;;9.00;48.80;98173.28;6207807;28;96652;-69
2022/01/20 09:24:03;;;;;;;;;8.20;7.20;;;;;9.13;48.35;98175.78;6196064;28;96575;-70
2022/01/20 09:27:07;;;;;;;;;7.00;7.00;;;;;9.22;48.28;98168.22;6202000;28;96670;-68
2022/01/20 09:30:17;;;;;;;;;9.40;8.00;;;;;9.98;46.61;98151.97;6188751;28;98727;-70
2022/01/20 09:33:27;;;;;;;;;9.00;8.00;;;;;11.38;43.84;98146.13;6210253;28;99561;-68
2022/01/20 09:36:32;;;;;;;;;8.75;8.00;;;;;12.67;40.99;98127.69;6204846;28;97042;-72
2022/01/20 09:39:38;;;;;;;;;10.80;9.80;;;;;14.27;37.55;98129.25;6192715;28;97720;-72
2022/01/20 09:42:48;;;;;;;;;13.00;12.00;;;;;15.58;35.16;98114.44;6206173;28;98391;-72
2022/01/20 09:45:55;;;;;;;;;12.00;12.00;;;;;16.61;32.98;98092.16;6194983;28;98049;-72
2022/01/20 09:49:02;;;;;;;;;12.00;12.00;;;;;17.82;31.04;98101.38;6218086;28;97484;-72
2022/01/20 09:52:13;;;;;;;;;9.00;9.00;;;;;18.72;29.85;98105.00;6207065;28;97609;-72
2022/01/20 09:55:24;;;;;;;;;12.00;11.00;;;;;19.63;28.43;98100.94;6206362;28;96605;-70
2022/01/20 09:58:27;;;;;;;;;11.00;10.00;;;;;20.06;27.77;98079.66;6200073;28;98087;-72
2022/01/20 10:01:42;;;;;;;;;12.40;11.00;;;;;20.36;26.92;98075.53;6231127;27;97529;-70
2022/01/20 10:04:56;;;;;;;;;11.40;10.40;;;;;19.47;27.28;98085.88;6215368;28;96892;-71
2022/01/20 10:08:10;;;;;;;;;12.80;11.00;;;;;19.85;27.46;98081.13;6243282;27;96654;-73
2022/01/20 10:11:24;;;;;;;;;8.60;7.60;;;;;20.25;25.92;98057.66;6199273;28;96540;-71
2022/01/20 10:14:48;;;;;;;;;6.00;5.80;;;;;20.66;25.62;98058.47;6208144;28;96520;-71
2022/01/20 10:18:12;;;;;;;;;8.75;7.00;;;;;20.76;25.41;98030.03;6209967;28;96704;-73
2022/01/20 10:21:29;;;;;;;;;7.80;6.80;;;;;20.53;25.90;98033.81;6188482;28;97707;-71
2022/01/20 10:25:02;;;;;;;;;8.00;7.40;;;;;20.43;25.69;98031.31;6192129;28;97721;-71
2022/01/20 10:28:27;;;;;;;;;8.00;6.60;;;;;19.16;27.38;98033.59;6208591;28;96875;-73
2022/01/20 10:31:34;;;;;;;;;8.00;8.00;;;;;17.56;28.40;98008.91;6210339;28;97218;-70
2022/01/20 10:34:38;;;;;;;;;10.00;8.25;;;;;16.63;29.97;98003.69;6213802;28;96676;-72
2022/01/20 10:37:59;;;;;;;;;9.00;8.00;;;;;15.29;31.66;98000.09;6235136;27;97505;-70
2022/01/20 10:41:11;;;;;;;;;6.00;6.00;;;;;14.21;32.85;97988.56;6227379;27;98221;-71
2022/01/20 10:44:16;;;;;;;;;6.60;6.00;;;;;13.65;33.45;97963.94;6191452;28;98272;-72
2022/01/20 10:47:36;;;;;;;;;5.00;5.00;;;;;12.91;34.07;97977.53;6210301;28;97133;-70
2022/01/20 10:50:40;;;;;;;;;7.80;7.00;;;;;12.46;34.87;97967.13;6210871;28;97435;-70
2022/01/20 10:53:58;;;;;;;;;8.40;7.40;;;;;12.18;35.30;97977.38;6200397;28;99727;-72
2022/01/20 10:57:03;;;;;;;;;6.60;5.00;;;;;11.55;35.69;97951.75;6229817;28;97417;-69
2022/01/20 11:00:15;;;;;;;;;4.00;3.00;;;;;10.93;35.00;97932.28;6211435;28;97494;-71
2022/01/20 11:03:22;;;;;;;;;3.00;3.00;;;;;10.62;36.24;97920.19;6197049;28;97756;-69
2022/01/20 11:06:26;;;;;;;;;6.00;5.00;;;;;10.50;36.18;97927.56;6213910;28;96976;-72
2022/01/20 11:09:42;;;;;;;;;5.00;4.00;;;;;10.04;36.49;97909.75;6209354;28;96826;-68
2022/01/20 11:13:03;;;;;;;;;4.00;4.00;;;;;9.81;36.38;97916.88;6201870;28;97443;-72
2022/01/20 11:16:13;;;;;;;;;3.60;3.00;;;;;9.92;35.85;97931.34;6213196;28;97425;-71
2022/01/20 11:19:18;;;;;;;;;4.00;3.00;;;;;9.79;36.05;97916.28;6213617;28;97405;-71
2022/01/20 11:22:21;;;;;;;;;3.00;3.00;;;;;9.78;36.24;97900.38;6245644;27;97427;-68
2022/01/20 11:25:45;;;;;;;;;3.60;3.00;;;;;9.37;36.67;97879.94;6233025;27;97451;-69
2022/01/20 11:29:02;;;;;;;;;2.00;2.00;;;;;9.62;37.12;97912.75;6214732;28;96829;-71
2022/01/20 11:32:21;;;;;;;;;4.40;3.00;;;;;9.71;36.69;97918.56;6211551;28;97488;-71
2022/01/20 11:35:42;;;;;;;;;3.00;3.00;;;;;9.77;36.46;97936.44;6212547;28;96761;-71
2022/01/20 11:38:49;;;;;;;;;3.00;2.00;;;;;9.42;37.66;97953.50;6185776;28;98907;-67
2022/01/20 11:41:53;;;;;;;;;3.00;2.50;;;;;9.23;41.22;98002.28;6228934;28;96677;-68
2022/01/20 11:44:56;;;;;;;;;2.00;2.00;;;;;8.47;49.46;98044.22;6224973;28;97290;-69
2022/01/20 11:48:18;;;;;;;;;1.80;1.80;;;;;7.65;48.66;98051.03;6209833;28;98811;-69
2022/01/20 11:51:23;;;;;;;;;3.00;3.00;;;;;6.97;49.07;98045.72;6240011;27;96781;-69
2022/01/20 11:54:45;;;;;;;;;2.00;2.00;;;;;6.22;51.43;98017.22;6211955;28;96599;-70
2022/01/20 11:57:50;;;;;;;;;2.00;2.00;;;;;6.36;50.29;98064.28;6212566;28;97525;-70
2022/01/20 12:01:01;;;;;;;;;1.00;1.00;;;;;6.15;51.69;98067.28;6206111;28;96642;-69
2022/01/20 12:04:06;;;;;;;;;1.00;1.00;;;;;6.06;51.58;98066.69;6245297;27;96513;-69
2022/01/20 12:07:25;;;;;;;;;2.00;1.50;;;;;6.13;51.26;98069.34;6209393;28;96651;-71
2022/01/20 12:10:29;;;;;;;;;3.00;2.00;;;;;6.08;51.64;98061.13;6219460;28;99536;-72
2022/01/20 12:13:32;;;;;;;;;1.00;1.00;;;;;6.13;50.75;98055.13;6215551;28;96580;-71
2022/01/20 12:16:37;;;;;;;;;2.00;2.00;;;;;6.27;50.07;98060.22;6199661;28;99811;-70
2022/01/20 12:19:43;;;;;;;;;4.00;3.00;;;;;6.06;50.17;98077.38;6211637;28;96556;-71
2022/01/20 12:22:47;;;;;;;;;3.00;2.00;;;;;6.00;50.26;98078.25;6212075;28;98793;-69
2022/01/20 12:25:51;;;;;;;;;4.00;4.00;;;;;6.00;49.64;98067.56;6205221;28;97901;-68
2022/01/20 12:29:02;;;;;;;;;3.00;3.00;;;;;6.00;49.72;98083.63;6209982;28;96664;-70
2022/01/20 12:32:12;;;;;;;;;3.00;3.00;;;;;6.04;49.57;98070.63;6212386;28;96919;-71
2022/01/20 12:35:17;;;;;;;;;4.00;3.20;;;;;6.24;49.43;98084.75;6207728;28;98549;-70
2022/01/20 12:38:25;;;;;;;;;4.00;4.00;;;;;6.15;49.40;98072.63;6208450;28;98256;-69
2022/01/20 12:41:29;;;;;;;;;6.40;5.00;;;;;6.13;49.66;98069.34;6209538;28;97104;-69
2022/01/20 12:44:41;;;;;;;;;6.60;5.60;;;;;6.13;49.90;98064.00;6213496;28;97412;-72
2022/01/20 12:47:45;;;;;;;;;6.00;6.00;;;;;6.22;50.16;98068.06;6212948;28;96553;-69
2022/01/20 12:50:54;;;;;;;;;7.00;6.00;;;;;6.22;49.77;98073.41;6193725;28;96673;-69
2022/01/20 12:54:05;;;;;;;;;6.00;6.00;;;;;6.21;50.30;98071.75;6193864;28;99674;-69
2022/01/20 12:57:11;;;;;;;;;6.00;6.00;;;;;6.29;50.30;98090.28;6206312;28;96781;-71
2022/01/20 13:00:15;;;;;;;;;4.20;4.00;;;;;6.19;50.70;98105.97;6210419;28;97586;-71
2022/01/20 13:03:18;;;;;;;;;4.60;4.40;;;;;6.23;50.77;98114.38;6211094;28;97256;-69
2022/01/20 13:06:27;;;;;;;;;6.00;5.00;;;;;6.12;51.34;98107.00;6209710;28;96571;-71
2022/01/20 13:09:39;;;;;;;;;6.00;3.00;;;;;6.08;50.62;98117.31;6210432;28;98602;-72
2022/01/20 13:12:43;;;;;;;;;3.00;2.00;;;;;6.15;49.53;98117.31;6211717;28;97462;-70
2022/01/20 13:15:46;;;;;;;;;4.00;4.00;;;;;6.29;48.64;98119.72;6205232;28;97882;-68
2022/01/20 13:18:53;;;;;;;;;5.00;4.00;;;;;6.34;45.96;98127.09;6188047;28;97500;-69
2022/01/20 13:21:58;;;;;;;;;6.00;5.00;;;;;6.43;44.70;98137.34;6201284;28;99750;-71
2022/01/20 13:25:07;;;;;;;;;5.00;4.00;;;;;6.40;43.80;98148.47;6211252;28;97022;-69
2022/01/20 13:28:14;;;;;;;;;5.00;4.00;;;;;6.33;42.44;98149.56;6197185;28;99453;-70
2022/01/20 13:31:18;;;;;;;;;4.00;3.00;;;;;6.32;41.46;98154.06;6226964;28;98413;-69
2022/01/20 13:34:22;;;;;;;;;4.25;4.00;;;;;6.20;39.65;98157.63;6211347;28;96502;-69
2022/01/20 13:37:31;;;;;;;;;5.60;5.60;;;;;6.32;40.16;98162.09;6191926;28;97729;-70
2022/01/20 13:40:35;;;;;;;;;3.00;3.00;;;;;6.42;38.11;98151.78;6227877;28;98347;-70
2022/01/20 13:47:10;;;;;;;;;3.20;3.00;;;;;6.31;35.68;98168.50;6212608;28;98007;-69
2022/01/20 13:50:16;;;;;;;;;4.00;3.00;;;;;6.26;35.92;98179.00;6199049;28;98508;-69
2022/01/20 13:53:26;;;;;;;;;3.60;3.00;;;;;6.21;36.34;98194.88;6212085;28;97403;-69
2022/01/20 13:56:30;;;;;;;;;3.60;3.00;;;;;5.99;34.88;98183.63;6208869;28;97729;-69
2022/01/20 13:59:33;;;;;;;;;5.20;4.20;;;;;5.99;36.12;98198.84;6205423;28;96709;-69
2022/01/20 14:02:36;;;;;;;;;4.00;3.40;;;;;5.86;36.71;98202.38;6210824;28;96521;-69
2022/01/20 14:05:40;;;;;;;;;5.40;5.00;;;;;5.83;37.28;98213.47;6197730;28;98273;-71
2022/01/20 14:08:45;;;;;;;;;5.00;5.00;;;;;5.83;37.18;98226.00;6200968;28;98544;-69
2022/01/20 14:11:48;;;;;;;;;4.00;4.00;;;;;5.66;36.96;98236.31;6198617;28;96554;-69
2022/01/20 14:14:52;;;;;;;;;6.00;4.80;;;;;5.61;36.56;98234.28;6191777;28;97823;-71
2022/01/20 14:17:58;;;;;;;;;4.50;4.00;;;;;5.65;36.50;98242.69;6214481;28;96806;-70
2022/01/20 14:21:01;;;;;;;;;5.60;4.60;;;;;5.72;37.31;98253.41;6188605;28;98442;-71
2022/01/20 14:24:06;;;;;;;;;5.50;4.50;;;;;5.78;37.04;98261.41;6209732;28;96329;-70
2022/01/20 14:27:12;;;;;;;;;6.00;5.80;;;;;5.68;37.13;98258.31;6197976;28;96664;-68
2022/01/20 14:30:16;;;;;;;;;5.00;5.00;;;;;5.67;37.51;98244.13;6207695;28;96662;-72
2022/01/20 14:33:19;;;;;;;;;5.00;4.50;;;;;5.74;37.60;98240.63;6176610;28;98407;-69
2022/01/20 14:36:23;;;;;;;;;5.00;4.20;;;;;5.79;37.73;98241.66;6217093;27;97013;-70
2022/01/20 14:39:28;;;;;;;;;6.00;5.60;;;;;5.71;37.48;98249.91;6201710;28;96685;-69
2022/01/20 14:42:31;;;;;;;;;5.00;4.00;;;;;5.50;37.34;98250.91;6205619;28;96730;-71
2022/01/20 14:45:34;;;;;;;;;7.00;6.00;;;;;5.41;37.55;98251.31;6223542;28;96436;-71
2022/01/20 14:48:38;;;;;;;;;6.00;5.75;;;;;5.46;37.29;98255.03;6209254;28;97949;-70
2022/01/20 14:51:41;;;;;;;;;3.00;3.00;;;;;5.39;37.29;98270.22;6206035;28;98773;-70
2022/01/20 14:54:46;;;;;;;;;5.00;4.00;;;;;5.20;37.19;98265.66;6209304;28;97230;-69
2022/01/20 14:57:50;;;;;;;;;4.00;3.33;;;;;5.34;37.01;98275.34;6209345;28;97076;-68
2022/01/20 15:00:53;;;;;;;;;3.00;3.00;;;;;5.32;36.72;98279.28;6211404;28;97408;-70
2022/01/20 15:03:57;;;;;;;;;3.80;3.00;;;;;5.27;37.19;98273.72;6204503;28;97447;-68
2022/01/20 15:07:00;;;;;;;;;4.00;3.25;;;;;5.21;36.80;98278.00;6219845;28;97390;-68
2022/01/20 15:10:07;;;;;;;;;3.00;3.00;;;;;5.12;37.28;98279.22;6187646;28;97000;-71
2022/01/20 15:13:10;;;;;;;;;4.75;3.75;;;;;4.88;37.42;98293.94;6193181;28;97412;-68
2022/01/20 15:16:14;;;;;;;;;3.00;3.00;;;;;4.86;37.11;98290.66;6212275;28;97363;-68
2022/01/20 15:19:17;;;;;;;;;3.00;3.00;;;;;4.97;37.03;98290.06;6202628;28;97722;-68
2022/01/20 15:22:21;;;;;;;;;4.50;3.00;;;;;4.95;37.34;98291.28;6209453;28;97009;-67
2022/01/20 15:25:25;;;;;;;;;3.60;3.00;;;;;4.90;37.51;98296.41;6209163;28;96663;-68
2022/01/20 15:28:31;;;;;;;;;5.20;4.00;;;;;4.91;37.70;98298.88;6212358;28;97443;-68
2022/01/20 15:31:36;;;;;;;;;3.00;3.00;;;;;4.93;37.74;98288.84;6213637;28;97402;-68
2022/01/20 15:34:40;;;;;;;;;4.00;3.00;;;;;4.93;37.29;98294.19;6209294;28;97475;-68
2022/01/20 15:37:44;;;;;;;;;2.00;2.00;;;;;4.74;37.54;98287.72;6194015;28;97115;-70
2022/01/20 15:40:49;;;;;;;;;3.40;3.00;;;;;4.79;37.81;98301.28;6205904;28;96790;-68
2022/01/20 15:43:53;;;;;;;;;3.00;3.00;;;;;4.72;38.03;98299.63;6202151;28;97951;-71
2022/01/20 15:46:57;;;;;;;;;4.20;4.20;;;;;4.83;38.36;98320.44;6215111;28;96527;-68